Main page
METAR-TAF:

METAR-TAF

Airports :

Bandar Abbas International Airport

Bandar Abbas, Iran

latitude: 27-13N, longitude: 056-22E, elevation: 10 m

Current weather observation

The report was made 45 minutes ago, at 01:00 UTC
Calm wind
Temperature 10°C
Humidity 76%
Pressure 1016 hPa
Visibility: 4000 m
mist

METAR: OIKB 200100Z 00000KT 4000 BR NSC 10/06 Q1015 A3000

Time: 05:15 (01:45 UTC)

Forecast

The report was made 2 hours and 45 minutes ago, at 23:00 UTC
Forecast valid from 20 at 00 UTC to 21 at 06 UTC
Wind 10 kt from the West/Southwest
Visibility: 5000 m
haze
Temporary
from 20 at 09 UTC to 20 at 18 UTC
Wind 18 kt from the Southwest with gusts up to 24 kt
Visibility: 3000 m
sand

TAF: OIKB 192300Z 2000/2106 25010KT 5000 HZ NSC TEMPO 2009/2018 23018G24KT 3000 SA

Weather observations and forecasts of more than 4000 airports (METAR and TAF reports).

The available stations are represented by yellow and red dots on the map.

Hover mouse over dot to see the name of the station.

Then click to see weather observations and forecasts.

To change the map : click on the green buttons with a black cross to zoom in, on the green button with a dash to zoom out, or on the green arrows for adjacent maps.


METAR-TAF: